SCQM weather

Las Quemas Airport
Osorno, Los Lagos Region, Chile

Public forecast

Using degrees Celsius for public forecast. Weather courtesy of forecast.io.

METAR (pilot weather report)

Report is more than 6 hours old.

Closest report is Cañal Bajo Carlos - Hott Siebert Airport, 3.5 nm (6.4 km) ENE. Retrieved 2019/09/14 21:00 UTC (8 hours ago):

SCJO 142100Z 30004KT 4000 RA BKN008 OVC020 09/08 Q1010

TAF (pilot weather forecast)

Forecast is more than 12 hours old.

Closest forecast is Cañal Bajo Carlos - Hott Siebert Airport, 3.5 nm (6.4 km) ENE. Retrieved 2019/09/14 12:00 UTC (17 hours ago):

TAF SCJO 141033Z 1412/1500 36005KT 9999 SCT010 BKN030 OVC100 TN06/1412Z TX12/1419Z BECMG 1415/1417 30010KT 7000 -RA BKN025 OVC050 BECMG 1419/1421 9000 -SHRA SCT025 BKN060